sensor_id;sensor_type;location;lat;lon;timestamp;P1;durP1;ratioP1;P2;durP2;ratioP2
30571;SDS011;17348;50.948;10.696;2024-03-02T00:00:31;51.67;;;19.53;;
30571;SDS011;17348;50.948;10.696;2024-03-02T00:03:35;44.73;;;19.03;;
30571;SDS011;17348;50.948;10.696;2024-03-02T00:06:38;44.07;;;17.90;;
30571;SDS011;17348;50.948;10.696;2024-03-02T00:09:40;44.37;;;18.70;;
30571;SDS011;17348;50.948;10.696;2024-03-02T00:12:43;47.47;;;18.47;;
30571;SDS011;17348;50.948;10.696;2024-03-02T00:15:51;39.03;;;16.63;;
30571;SDS011;17348;50.948;10.696;2024-03-02T00:18:56;45.57;;;19.93;;
30571;SDS011;17348;50.948;10.696;2024-03-02T00:22:02;43.97;;;19.70;;
30571;SDS011;17348;50.948;10.696;2024-03-02T00:25:05;43.30;;;17.30;;
30571;SDS011;17348;50.948;10.696;2024-03-02T00:28:14;45.43;;;18.07;;
30571;SDS011;17348;50.948;10.696;2024-03-02T00:31:19;43.60;;;17.83;;
30571;SDS011;17348;50.948;10.696;2024-03-02T00:34:23;55.73;;;17.83;;
30571;SDS011;17348;50.948;10.696;2024-03-02T00:37:26;38.80;;;18.23;;
30571;SDS011;17348;50.948;10.696;2024-03-02T00:40:29;39.63;;;18.20;;
30571;SDS011;17348;50.948;10.696;2024-03-02T00:43:42;39.33;;;16.83;;
30571;SDS011;17348;50.948;10.696;2024-03-02T00:46:45;39.47;;;17.10;;
30571;SDS011;17348;50.948;10.696;2024-03-02T00:49:49;31.73;;;15.50;;
30571;SDS011;17348;50.948;10.696;2024-03-02T00:52:51;39.00;;;16.57;;
30571;SDS011;17348;50.948;10.696;2024-03-02T00:55:54;41.37;;;16.60;;
30571;SDS011;17348;50.948;10.696;2024-03-02T00:58:56;40.97;;;17.23;;
30571;SDS011;17348;50.948;10.696;2024-03-02T01:01:58;33.50;;;16.63;;
30571;SDS011;17348;50.948;10.696;2024-03-02T01:05:02;38.80;;;16.23;;
30571;SDS011;17348;50.948;10.696;2024-03-02T01:08:06;42.17;;;16.67;;
30571;SDS011;17348;50.948;10.696;2024-03-02T01:11:08;42.43;;;17.87;;
30571;SDS011;17348;50.948;10.696;2024-03-02T01:14:10;41.00;;;17.60;;
30571;SDS011;17348;50.948;10.696;2024-03-02T01:17:18;41.43;;;18.10;;
30571;SDS011;17348;50.948;10.696;2024-03-02T01:20:24;39.87;;;17.87;;
30571;SDS011;17348;50.948;10.696;2024-03-02T01:23:27;39.23;;;16.97;;
30571;SDS011;17348;50.948;10.696;2024-03-02T01:26:29;39.63;;;16.73;;
30571;SDS011;17348;50.948;10.696;2024-03-02T01:29:32;45.67;;;17.97;;
30571;SDS011;17348;50.948;10.696;2024-03-02T01:32:37;44.10;;;18.60;;
30571;SDS011;17348;50.948;10.696;2024-03-02T01:35:55;40.77;;;16.80;;
30571;SDS011;17348;50.948;10.696;2024-03-02T01:38:57;40.17;;;15.93;;
30571;SDS011;17348;50.948;10.696;2024-03-02T01:41:59;38.70;;;16.27;;
30571;SDS011;17348;50.948;10.696;2024-03-02T01:45:03;42.10;;;18.93;;
30571;SDS011;17348;50.948;10.696;2024-03-02T01:48:06;44.50;;;17.33;;
30571;SDS011;17348;50.948;10.696;2024-03-02T01:51:10;37.00;;;15.87;;
30571;SDS011;17348;50.948;10.696;2024-03-02T01:54:12;38.47;;;16.97;;
30571;SDS011;17348;50.948;10.696;2024-03-02T01:57:15;37.27;;;16.73;;
30571;SDS011;17348;50.948;10.696;2024-03-02T02:00:17;40.80;;;16.67;;
30571;SDS011;17348;50.948;10.696;2024-03-02T02:03:21;43.70;;;17.93;;
30571;SDS011;17348;50.948;10.696;2024-03-02T02:06:24;40.77;;;18.03;;
30571;SDS011;17348;50.948;10.696;2024-03-02T02:09:27;41.77;;;17.30;;
30571;SDS011;17348;50.948;10.696;2024-03-02T02:12:29;37.40;;;17.27;;
30571;SDS011;17348;50.948;10.696;2024-03-02T02:15:31;41.67;;;16.60;;
30571;SDS011;17348;50.948;10.696;2024-03-02T02:18:36;42.00;;;16.83;;
30571;SDS011;17348;50.948;10.696;2024-03-02T02:21:39;44.53;;;18.13;;
30571;SDS011;17348;50.948;10.696;2024-03-02T02:24:44;41.20;;;17.73;;
30571;SDS011;17348;50.948;10.696;2024-03-02T02:27:46;37.87;;;16.67;;
30571;SDS011;17348;50.948;10.696;2024-03-02T02:30:48;32.63;;;13.60;;
30571;SDS011;17348;50.948;10.696;2024-03-02T02:33:50;34.60;;;15.37;;
30571;SDS011;17348;50.948;10.696;2024-03-02T02:36:54;42.70;;;12.67;;
30571;SDS011;17348;50.948;10.696;2024-03-02T02:39:57;33.70;;;14.03;;
30571;SDS011;17348;50.948;10.696;2024-03-02T02:42:59;35.60;;;14.03;;
30571;SDS011;17348;50.948;10.696;2024-03-02T02:46:01;33.90;;;13.20;;
30571;SDS011;17348;50.948;10.696;2024-03-02T02:49:04;30.43;;;12.77;;
30571;SDS011;17348;50.948;10.696;2024-03-02T02:52:08;30.50;;;13.73;;
30571;SDS011;17348;50.948;10.696;2024-03-02T02:55:10;28.10;;;12.10;;
30571;SDS011;17348;50.948;10.696;2024-03-02T02:58:13;28.13;;;12.30;;
30571;SDS011;17348;50.948;10.696;2024-03-02T03:01:16;34.50;;;13.17;;
30571;SDS011;17348;50.948;10.696;2024-03-02T03:04:18;28.03;;;13.23;;
30571;SDS011;17348;50.948;10.696;2024-03-02T03:07:22;38.23;;;14.43;;
30571;SDS011;17348;50.948;10.696;2024-03-02T03:10:24;34.53;;;11.60;;
30571;SDS011;17348;50.948;10.696;2024-03-02T03:13:28;30.77;;;13.60;;
30571;SDS011;17348;50.948;10.696;2024-03-02T03:16:30;36.80;;;14.37;;
30571;SDS011;17348;50.948;10.696;2024-03-02T03:19:32;35.67;;;15.23;;
30571;SDS011;17348;50.948;10.696;2024-03-02T03:22:36;33.83;;;13.40;;
30571;SDS011;17348;50.948;10.696;2024-03-02T03:25:38;40.07;;;16.13;;
30571;SDS011;17348;50.948;10.696;2024-03-02T03:28:41;34.77;;;15.67;;
30571;SDS011;17348;50.948;10.696;2024-03-02T03:31:43;38.70;;;15.17;;
30571;SDS011;17348;50.948;10.696;2024-03-02T03:34:45;32.13;;;15.83;;
30571;SDS011;17348;50.948;10.696;2024-03-02T03:37:50;37.83;;;15.27;;
30571;SDS011;17348;50.948;10.696;2024-03-02T03:40:52;40.90;;;16.60;;
30571;SDS011;17348;50.948;10.696;2024-03-02T03:43:55;44.40;;;18.17;;
30571;SDS011;17348;50.948;10.696;2024-03-02T03:46:58;43.27;;;17.10;;
30571;SDS011;17348;50.948;10.696;2024-03-02T03:50:01;52.33;;;19.50;;
30571;SDS011;17348;50.948;10.696;2024-03-02T03:53:08;43.80;;;19.53;;
30571;SDS011;17348;50.948;10.696;2024-03-02T03:56:11;50.00;;;20.30;;
30571;SDS011;17348;50.948;10.696;2024-03-02T03:59:13;49.90;;;20.47;;
30571;SDS011;17348;50.948;10.696;2024-03-02T04:02:16;57.27;;;21.03;;
30571;SDS011;17348;50.948;10.696;2024-03-02T04:05:18;58.07;;;21.70;;
30571;SDS011;17348;50.948;10.696;2024-03-02T04:08:22;49.37;;;20.70;;
30571;SDS011;17348;50.948;10.696;2024-03-02T04:11:24;62.03;;;23.63;;
30571;SDS011;17348;50.948;10.696;2024-03-02T04:14:27;54.97;;;20.60;;
30571;SDS011;17348;50.948;10.696;2024-03-02T04:17:29;53.40;;;20.40;;
30571;SDS011;17348;50.948;10.696;2024-03-02T04:20:33;58.63;;;21.57;;
30571;SDS011;17348;50.948;10.696;2024-03-02T04:23:37;55.23;;;23.07;;
30571;SDS011;17348;50.948;10.696;2024-03-02T04:26:39;48.43;;;20.47;;
30571;SDS011;17348;50.948;10.696;2024-03-02T04:29:42;48.03;;;19.23;;
30571;SDS011;17348;50.948;10.696;2024-03-02T04:32:44;45.80;;;19.17;;
30571;SDS011;17348;50.948;10.696;2024-03-02T04:35:48;42.80;;;17.50;;
30571;SDS011;17348;50.948;10.696;2024-03-02T04:38:51;43.13;;;18.93;;
30571;SDS011;17348;50.948;10.696;2024-03-02T04:41:54;40.47;;;17.60;;
30571;SDS011;17348;50.948;10.696;2024-03-02T04:44:56;43.40;;;17.23;;
30571;SDS011;17348;50.948;10.696;2024-03-02T04:47:58;46.87;;;16.90;;
30571;SDS011;17348;50.948;10.696;2024-03-02T04:51:00;40.40;;;16.80;;
30571;SDS011;17348;50.948;10.696;2024-03-02T04:54:04;49.77;;;18.83;;
30571;SDS011;17348;50.948;10.696;2024-03-02T04:57:07;48.90;;;19.17;;
30571;SDS011;17348;50.948;10.696;2024-03-02T05:00:10;40.37;;;17.60;;
30571;SDS011;17348;50.948;10.696;2024-03-02T05:03:13;42.50;;;18.63;;
30571;SDS011;17348;50.948;10.696;2024-03-02T05:06:15;49.53;;;20.53;;
30571;SDS011;17348;50.948;10.696;2024-03-02T05:09:19;45.93;;;18.27;;
30571;SDS011;17348;50.948;10.696;2024-03-02T05:12:21;47.93;;;18.73;;
30571;SDS011;17348;50.948;10.696;2024-03-02T05:15:40;42.43;;;16.70;;
30571;SDS011;17348;50.948;10.696;2024-03-02T05:18:44;41.10;;;16.97;;
30571;SDS011;17348;50.948;10.696;2024-03-02T05:21:46;44.57;;;18.07;;
30571;SDS011;17348;50.948;10.696;2024-03-02T05:24:50;45.97;;;16.93;;
30571;SDS011;17348;50.948;10.696;2024-03-02T05:27:52;39.47;;;16.80;;
30571;SDS011;17348;50.948;10.696;2024-03-02T05:30:55;41.00;;;16.00;;
30571;SDS011;17348;50.948;10.696;2024-03-02T05:33:57;37.47;;;15.67;;
30571;SDS011;17348;50.948;10.696;2024-03-02T05:36:59;40.70;;;15.93;;
30571;SDS011;17348;50.948;10.696;2024-03-02T05:40:04;38.20;;;15.20;;
30571;SDS011;17348;50.948;10.696;2024-03-02T05:43:08;35.93;;;14.57;;
30571;SDS011;17348;50.948;10.696;2024-03-02T05:46:10;44.83;;;17.23;;
30571;SDS011;17348;50.948;10.696;2024-03-02T05:49:12;42.57;;;16.93;;
30571;SDS011;17348;50.948;10.696;2024-03-02T05:52:15;40.63;;;15.53;;
30571;SDS011;17348;50.948;10.696;2024-03-02T05:55:18;42.10;;;16.27;;
30571;SDS011;17348;50.948;10.696;2024-03-02T05:58:20;44.47;;;17.77;;
30571;SDS011;17348;50.948;10.696;2024-03-02T06:01:38;42.30;;;16.33;;
30571;SDS011;17348;50.948;10.696;2024-03-02T06:04:40;39.63;;;16.63;;
30571;SDS011;17348;50.948;10.696;2024-03-02T06:07:42;37.27;;;17.43;;
30571;SDS011;17348;50.948;10.696;2024-03-02T06:10:46;40.37;;;16.27;;
30571;SDS011;17348;50.948;10.696;2024-03-02T06:13:49;46.47;;;17.33;;
30571;SDS011;17348;50.948;10.696;2024-03-02T06:16:51;41.80;;;17.37;;
30571;SDS011;17348;50.948;10.696;2024-03-02T06:19:53;40.50;;;17.30;;
30571;SDS011;17348;50.948;10.696;2024-03-02T06:22:56;42.80;;;17.77;;
30571;SDS011;17348;50.948;10.696;2024-03-02T06:25:59;40.47;;;17.13;;
30571;SDS011;17348;50.948;10.696;2024-03-02T06:29:02;37.07;;;16.27;;
30571;SDS011;17348;50.948;10.696;2024-03-02T06:32:05;41.43;;;17.43;;
30571;SDS011;17348;50.948;10.696;2024-03-02T06:35:08;47.93;;;17.77;;
30571;SDS011;17348;50.948;10.696;2024-03-02T06:38:10;45.40;;;17.00;;
30571;SDS011;17348;50.948;10.696;2024-03-02T06:41:14;44.63;;;17.60;;
30571;SDS011;17348;50.948;10.696;2024-03-02T06:44:16;42.30;;;18.57;;
30571;SDS011;17348;50.948;10.696;2024-03-02T06:47:19;47.00;;;18.57;;
30571;SDS011;17348;50.948;10.696;2024-03-02T06:50:21;37.53;;;15.87;;
30571;SDS011;17348;50.948;10.696;2024-03-02T06:53:24;28.63;;;13.67;;
30571;SDS011;17348;50.948;10.696;2024-03-02T06:56:27;37.67;;;17.07;;
30571;SDS011;17348;50.948;10.696;2024-03-02T06:59:31;34.93;;;16.20;;
30571;SDS011;17348;50.948;10.696;2024-03-02T07:02:34;29.63;;;13.97;;
30571;SDS011;17348;50.948;10.696;2024-03-02T07:05:36;29.50;;;13.53;;
30571;SDS011;17348;50.948;10.696;2024-03-02T07:08:38;27.00;;;12.23;;
30571;SDS011;17348;50.948;10.696;2024-03-02T07:11:45;27.73;;;12.63;;
30571;SDS011;17348;50.948;10.696;2024-03-02T07:14:48;37.23;;;13.80;;
30571;SDS011;17348;50.948;10.696;2024-03-02T07:18:11;28.03;;;13.77;;
30571;SDS011;17348;50.948;10.696;2024-03-02T07:21:13;23.77;;;11.43;;
30571;SDS011;17348;50.948;10.696;2024-03-02T07:24:16;26.90;;;12.83;;
30571;SDS011;17348;50.948;10.696;2024-03-02T07:27:19;30.25;;;13.02;;
30571;SDS011;17348;50.948;10.696;2024-03-02T07:30:22;29.27;;;12.80;;
30571;SDS011;17348;50.948;10.696;2024-03-02T07:33:24;25.73;;;11.63;;
30571;SDS011;17348;50.948;10.696;2024-03-02T07:36:26;23.77;;;12.13;;
30571;SDS011;17348;50.948;10.696;2024-03-02T07:39:29;25.38;;;12.20;;
30571;SDS011;17348;50.948;10.696;2024-03-02T07:42:33;22.13;;;10.75;;
30571;SDS011;17348;50.948;10.696;2024-03-02T07:45:35;21.23;;;10.98;;
30571;SDS011;17348;50.948;10.696;2024-03-02T07:48:37;19.75;;;9.75;;
30571;SDS011;17348;50.948;10.696;2024-03-02T07:51:40;18.23;;;8.63;;
30571;SDS011;17348;50.948;10.696;2024-03-02T07:54:42;17.90;;;9.48;;
30571;SDS011;17348;50.948;10.696;2024-03-02T07:57:46;20.13;;;9.70;;
30571;SDS011;17348;50.948;10.696;2024-03-02T08:00:48;20.40;;;10.20;;
30571;SDS011;17348;50.948;10.696;2024-03-02T08:03:50;16.48;;;8.77;;
30571;SDS011;17348;50.948;10.696;2024-03-02T08:06:53;20.00;;;10.38;;
30571;SDS011;17348;50.948;10.696;2024-03-02T08:09:56;21.23;;;10.35;;
30571;SDS011;17348;50.948;10.696;2024-03-02T08:12:59;16.77;;;8.10;;
30571;SDS011;17348;50.948;10.696;2024-03-02T08:16:02;20.83;;;9.82;;
30571;SDS011;17348;50.948;10.696;2024-03-02T08:19:07;22.58;;;9.63;;
30571;SDS011;17348;50.948;10.696;2024-03-02T08:22:10;18.58;;;9.55;;
30571;SDS011;17348;50.948;10.696;2024-03-02T08:25:12;17.92;;;9.10;;
30571;SDS011;17348;50.948;10.696;2024-03-02T08:28:17;20.15;;;9.55;;
30571;SDS011;17348;50.948;10.696;2024-03-02T08:31:20;19.30;;;9.13;;
30571;SDS011;17348;50.948;10.696;2024-03-02T08:34:22;18.90;;;9.07;;
30571;SDS011;17348;50.948;10.696;2024-03-02T08:37:25;20.67;;;8.85;;
30571;SDS011;17348;50.948;10.696;2024-03-02T08:40:27;20.42;;;9.93;;
30571;SDS011;17348;50.948;10.696;2024-03-02T08:43:31;23.08;;;10.27;;
30571;SDS011;17348;50.948;10.696;2024-03-02T08:46:33;22.08;;;10.13;;
30571;SDS011;17348;50.948;10.696;2024-03-02T08:49:36;17.27;;;9.02;;
30571;SDS011;17348;50.948;10.696;2024-03-02T08:52:38;18.60;;;9.40;;
30571;SDS011;17348;50.948;10.696;2024-03-02T08:55:40;19.35;;;9.95;;
30571;SDS011;17348;50.948;10.696;2024-03-02T08:58:44;20.10;;;9.32;;
30571;SDS011;17348;50.948;10.696;2024-03-02T09:01:46;19.45;;;8.73;;
30571;SDS011;17348;50.948;10.696;2024-03-02T09:04:49;21.52;;;9.63;;
30571;SDS011;17348;50.948;10.696;2024-03-02T09:07:51;21.13;;;8.93;;
30571;SDS011;17348;50.948;10.696;2024-03-02T09:10:54;17.48;;;9.07;;
30571;SDS011;17348;50.948;10.696;2024-03-02T09:13:58;17.70;;;8.85;;
30571;SDS011;17348;50.948;10.696;2024-03-02T09:17:00;17.42;;;9.13;;
30571;SDS011;17348;50.948;10.696;2024-03-02T09:20:03;17.27;;;8.32;;
30571;SDS011;17348;50.948;10.696;2024-03-02T09:23:06;20.58;;;8.20;;
30571;SDS011;17348;50.948;10.696;2024-03-02T09:26:08;15.50;;;8.85;;
30571;SDS011;17348;50.948;10.696;2024-03-02T09:29:12;20.83;;;8.18;;
30571;SDS011;17348;50.948;10.696;2024-03-02T09:32:14;14.73;;;7.95;;
30571;SDS011;17348;50.948;10.696;2024-03-02T09:35:16;17.42;;;8.02;;
30571;SDS011;17348;50.948;10.696;2024-03-02T09:38:18;16.10;;;7.88;;
30571;SDS011;17348;50.948;10.696;2024-03-02T09:41:21;19.15;;;7.47;;
30571;SDS011;17348;50.948;10.696;2024-03-02T09:44:25;16.90;;;8.40;;
30571;SDS011;17348;50.948;10.696;2024-03-02T09:47:27;15.70;;;7.85;;
30571;SDS011;17348;50.948;10.696;2024-03-02T09:50:30;18.40;;;7.72;;
30571;SDS011;17348;50.948;10.696;2024-03-02T09:53:33;16.10;;;7.72;;
30571;SDS011;17348;50.948;10.696;2024-03-02T09:56:35;18.45;;;7.95;;
30571;SDS011;17348;50.948;10.696;2024-03-02T09:59:42;15.38;;;7.45;;
30571;SDS011;17348;50.948;10.696;2024-03-02T10:02:46;24.02;;;8.25;;
30571;SDS011;17348;50.948;10.696;2024-03-02T10:05:49;14.02;;;7.40;;
30571;SDS011;17348;50.948;10.696;2024-03-02T10:08:53;14.35;;;7.53;;
30571;SDS011;17348;50.948;10.696;2024-03-02T10:12:03;16.98;;;6.82;;
30571;SDS011;17348;50.948;10.696;2024-03-02T10:15:08;11.88;;;6.60;;
30571;SDS011;17348;50.948;10.696;2024-03-02T10:18:11;13.35;;;7.20;;
30571;SDS011;17348;50.948;10.696;2024-03-02T10:21:16;13.20;;;6.75;;
30571;SDS011;17348;50.948;10.696;2024-03-02T10:24:20;11.38;;;6.18;;
30571;SDS011;17348;50.948;10.696;2024-03-02T10:27:25;16.17;;;6.10;;
30571;SDS011;17348;50.948;10.696;2024-03-02T10:30:31;12.63;;;5.68;;
30571;SDS011;17348;50.948;10.696;2024-03-02T10:33:33;10.38;;;5.78;;
30571;SDS011;17348;50.948;10.696;2024-03-02T10:36:37;11.60;;;6.18;;
30571;SDS011;17348;50.948;10.696;2024-03-02T10:39:42;11.30;;;5.65;;
30571;SDS011;17348;50.948;10.696;2024-03-02T10:42:47;8.05;;;4.38;;
30571;SDS011;17348;50.948;10.696;2024-03-02T10:45:52;11.95;;;5.03;;
30571;SDS011;17348;50.948;10.696;2024-03-02T10:48:55;9.50;;;5.28;;
30571;SDS011;17348;50.948;10.696;2024-03-02T10:51:59;7.55;;;4.20;;
30571;SDS011;17348;50.948;10.696;2024-03-02T10:55:01;7.03;;;3.85;;
30571;SDS011;17348;50.948;10.696;2024-03-02T10:58:06;11.30;;;4.20;;
30571;SDS011;17348;50.948;10.696;2024-03-02T11:01:15;7.85;;;4.40;;
30571;SDS011;17348;50.948;10.696;2024-03-02T11:04:18;33.20;;;11.23;;
30571;SDS011;17348;50.948;10.696;2024-03-02T11:07:21;28.85;;;8.82;;
30571;SDS011;17348;50.948;10.696;2024-03-02T11:10:26;22.58;;;8.07;;
30571;SDS011;17348;50.948;10.696;2024-03-02T11:13:31;8.25;;;4.40;;
30571;SDS011;17348;50.948;10.696;2024-03-02T11:16:38;6.72;;;3.33;;
30571;SDS011;17348;50.948;10.696;2024-03-02T11:19:42;4.50;;;2.47;;
30571;SDS011;17348;50.948;10.696;2024-03-02T11:22:45;6.18;;;2.80;;
30571;SDS011;17348;50.948;10.696;2024-03-02T11:25:48;7.20;;;2.97;;
30571;SDS011;17348;50.948;10.696;2024-03-02T11:28:50;5.75;;;3.50;;
30571;SDS011;17348;50.948;10.696;2024-03-02T11:32:00;6.03;;;3.65;;
30571;SDS011;17348;50.948;10.696;2024-03-02T11:35:03;6.22;;;2.85;;
30571;SDS011;17348;50.948;10.696;2024-03-02T11:38:08;7.55;;;2.58;;
30571;SDS011;17348;50.948;10.696;2024-03-02T11:41:11;6.78;;;2.92;;
30571;SDS011;17348;50.948;10.696;2024-03-02T11:44:14;6.60;;;2.35;;
30571;SDS011;17348;50.948;10.696;2024-03-02T11:47:19;4.97;;;2.45;;
30571;SDS011;17348;50.948;10.696;2024-03-02T11:50:28;5.22;;;3.30;;
30571;SDS011;17348;50.948;10.696;2024-03-02T11:53:30;7.00;;;4.00;;
30571;SDS011;17348;50.948;10.696;2024-03-02T11:56:33;5.07;;;2.80;;
30571;SDS011;17348;50.948;10.696;2024-03-02T11:59:36;7.78;;;3.00;;
30571;SDS011;17348;50.948;10.696;2024-03-02T12:02:39;6.38;;;2.40;;
30571;SDS011;17348;50.948;10.696;2024-03-02T12:05:48;5.25;;;2.65;;
30571;SDS011;17348;50.948;10.696;2024-03-02T12:08:52;3.97;;;2.13;;
30571;SDS011;17348;50.948;10.696;2024-03-02T12:12:01;7.72;;;2.20;;
30571;SDS011;17348;50.948;10.696;2024-03-02T12:15:05;4.80;;;2.53;;
30571;SDS011;17348;50.948;10.696;2024-03-02T12:18:11;6.95;;;3.17;;
30571;SDS011;17348;50.948;10.696;2024-03-02T12:21:13;5.03;;;2.75;;
30571;SDS011;17348;50.948;10.696;2024-03-02T12:24:15;4.75;;;2.75;;
30571;SDS011;17348;50.948;10.696;2024-03-02T12:27:18;5.55;;;3.30;;
30571;SDS011;17348;50.948;10.696;2024-03-02T12:30:21;12.75;;;6.00;;
30571;SDS011;17348;50.948;10.696;2024-03-02T12:33:26;15.82;;;6.32;;
30571;SDS011;17348;50.948;10.696;2024-03-02T12:36:29;7.22;;;3.92;;
30571;SDS011;17348;50.948;10.696;2024-03-02T12:39:38;5.53;;;2.88;;
30571;SDS011;17348;50.948;10.696;2024-03-02T12:42:40;4.38;;;2.78;;
30571;SDS011;17348;50.948;10.696;2024-03-02T12:45:43;5.30;;;2.97;;
30571;SDS011;17348;50.948;10.696;2024-03-02T12:48:46;4.55;;;2.55;;
30571;SDS011;17348;50.948;10.696;2024-03-02T12:51:49;5.60;;;2.63;;
30571;SDS011;17348;50.948;10.696;2024-03-02T12:54:54;6.40;;;3.50;;
30571;SDS011;17348;50.948;10.696;2024-03-02T12:57:59;8.23;;;3.22;;
30571;SDS011;17348;50.948;10.696;2024-03-02T13:01:06;4.43;;;2.63;;
30571;SDS011;17348;50.948;10.696;2024-03-02T13:04:11;4.75;;;2.65;;
30571;SDS011;17348;50.948;10.696;2024-03-02T13:07:14;4.85;;;2.80;;
30571;SDS011;17348;50.948;10.696;2024-03-02T13:10:16;7.50;;;2.55;;
30571;SDS011;17348;50.948;10.696;2024-03-02T13:13:19;6.05;;;2.88;;
30571;SDS011;17348;50.948;10.696;2024-03-02T13:16:21;4.05;;;2.47;;
30571;SDS011;17348;50.948;10.696;2024-03-02T13:19:26;6.68;;;3.33;;
30571;SDS011;17348;50.948;10.696;2024-03-02T13:22:31;4.22;;;2.25;;
30571;SDS011;17348;50.948;10.696;2024-03-02T13:25:33;3.97;;;2.50;;
30571;SDS011;17348;50.948;10.696;2024-03-02T13:28:36;6.85;;;2.55;;
30571;SDS011;17348;50.948;10.696;2024-03-02T13:31:39;4.50;;;2.40;;
30571;SDS011;17348;50.948;10.696;2024-03-02T13:34:43;8.43;;;1.92;;
30571;SDS011;17348;50.948;10.696;2024-03-02T13:37:45;8.10;;;1.80;;
30571;SDS011;17348;50.948;10.696;2024-03-02T13:40:48;4.50;;;1.70;;
30571;SDS011;17348;50.948;10.696;2024-03-02T13:43:52;3.97;;;1.77;;
30571;SDS011;17348;50.948;10.696;2024-03-02T13:46:55;2.10;;;1.42;;
30571;SDS011;17348;50.948;10.696;2024-03-02T13:49:59;2.67;;;1.63;;
30571;SDS011;17348;50.948;10.696;2024-03-02T13:53:03;3.08;;;1.30;;
30571;SDS011;17348;50.948;10.696;2024-03-02T13:56:07;1.23;;;0.85;;
30571;SDS011;17348;50.948;10.696;2024-03-02T13:59:09;2.20;;;1.25;;
30571;SDS011;17348;50.948;10.696;2024-03-02T14:02:12;2.85;;;1.60;;
30571;SDS011;17348;50.948;10.696;2024-03-02T14:05:16;1.70;;;0.90;;
30571;SDS011;17348;50.948;10.696;2024-03-02T14:08:19;1.20;;;0.70;;
30571;SDS011;17348;50.948;10.696;2024-03-02T14:11:22;2.15;;;0.75;;
30571;SDS011;17348;50.948;10.696;2024-03-02T14:14:24;7.05;;;1.05;;
30571;SDS011;17348;50.948;10.696;2024-03-02T14:17:26;1.80;;;1.00;;
30571;SDS011;17348;50.948;10.696;2024-03-02T14:20:30;1.50;;;1.00;;
30571;SDS011;17348;50.948;10.696;2024-03-02T14:23:33;1.65;;;0.93;;
30571;SDS011;17348;50.948;10.696;2024-03-02T14:26:36;2.00;;;1.00;;
30571;SDS011;17348;50.948;10.696;2024-03-02T14:29:38;2.70;;;1.40;;
30571;SDS011;17348;50.948;10.696;2024-03-02T14:32:41;1.85;;;1.33;;
30571;SDS011;17348;50.948;10.696;2024-03-02T14:35:45;2.70;;;1.23;;
30571;SDS011;17348;50.948;10.696;2024-03-02T14:38:48;2.70;;;1.60;;
30571;SDS011;17348;50.948;10.696;2024-03-02T14:41:50;1.58;;;0.90;;
30571;SDS011;17348;50.948;10.696;2024-03-02T14:44:52;2.60;;;1.10;;
30571;SDS011;17348;50.948;10.696;2024-03-02T14:47:55;2.58;;;1.30;;
30571;SDS011;17348;50.948;10.696;2024-03-02T14:51:01;2.65;;;1.08;;
30571;SDS011;17348;50.948;10.696;2024-03-02T14:54:04;3.63;;;1.58;;
30571;SDS011;17348;50.948;10.696;2024-03-02T14:57:06;3.00;;;1.42;;
30571;SDS011;17348;50.948;10.696;2024-03-02T15:00:09;1.83;;;1.23;;
30571;SDS011;17348;50.948;10.696;2024-03-02T15:03:12;8.45;;;1.40;;
30571;SDS011;17348;50.948;10.696;2024-03-02T15:06:16;2.45;;;1.20;;
30571;SDS011;17348;50.948;10.696;2024-03-02T15:09:19;2.20;;;1.27;;
30571;SDS011;17348;50.948;10.696;2024-03-02T15:12:22;1.92;;;1.25;;
30571;SDS011;17348;50.948;10.696;2024-03-02T15:15:24;3.35;;;1.70;;
30571;SDS011;17348;50.948;10.696;2024-03-02T15:18:27;6.05;;;2.20;;
30571;SDS011;17348;50.948;10.696;2024-03-02T15:21:30;4.20;;;1.50;;
30571;SDS011;17348;50.948;10.696;2024-03-02T15:24:33;5.32;;;2.30;;
30571;SDS011;17348;50.948;10.696;2024-03-02T15:27:35;8.70;;;2.50;;
30571;SDS011;17348;50.948;10.696;2024-03-02T15:30:37;3.40;;;2.10;;
30571;SDS011;17348;50.948;10.696;2024-03-02T15:33:40;3.92;;;2.13;;
30571;SDS011;17348;50.948;10.696;2024-03-02T15:36:44;7.85;;;2.72;;
30571;SDS011;17348;50.948;10.696;2024-03-02T15:39:46;5.75;;;2.45;;
30571;SDS011;17348;50.948;10.696;2024-03-02T15:42:48;4.07;;;2.10;;
30571;SDS011;17348;50.948;10.696;2024-03-02T15:45:51;4.30;;;2.40;;
30571;SDS011;17348;50.948;10.696;2024-03-02T15:48:53;3.47;;;2.25;;
30571;SDS011;17348;50.948;10.696;2024-03-02T15:51:57;4.28;;;2.28;;
30571;SDS011;17348;50.948;10.696;2024-03-02T15:55:00;7.00;;;2.67;;
30571;SDS011;17348;50.948;10.696;2024-03-02T15:58:05;5.85;;;2.83;;
30571;SDS011;17348;50.948;10.696;2024-03-02T16:01:08;4.93;;;2.30;;
30571;SDS011;17348;50.948;10.696;2024-03-02T16:04:11;4.38;;;2.47;;
30571;SDS011;17348;50.948;10.696;2024-03-02T16:07:15;4.40;;;3.00;;
30571;SDS011;17348;50.948;10.696;2024-03-02T16:10:17;4.18;;;2.42;;
30571;SDS011;17348;50.948;10.696;2024-03-02T16:13:19;7.53;;;2.35;;
30571;SDS011;17348;50.948;10.696;2024-03-02T16:16:22;2.88;;;1.85;;
30571;SDS011;17348;50.948;10.696;2024-03-02T16:19:24;8.02;;;2.15;;
30571;SDS011;17348;50.948;10.696;2024-03-02T16:22:28;4.95;;;2.50;;
30571;SDS011;17348;50.948;10.696;2024-03-02T16:25:30;3.40;;;2.22;;
30571;SDS011;17348;50.948;10.696;2024-03-02T16:28:32;6.30;;;2.40;;
30571;SDS011;17348;50.948;10.696;2024-03-02T16:31:36;5.82;;;2.65;;
30571;SDS011;17348;50.948;10.696;2024-03-02T16:34:38;5.65;;;1.98;;
30571;SDS011;17348;50.948;10.696;2024-03-02T16:37:42;6.28;;;3.25;;
30571;SDS011;17348;50.948;10.696;2024-03-02T16:40:46;5.80;;;2.85;;
30571;SDS011;17348;50.948;10.696;2024-03-02T16:43:49;4.38;;;2.58;;
30571;SDS011;17348;50.948;10.696;2024-03-02T16:46:51;5.78;;;2.95;;
30571;SDS011;17348;50.948;10.696;2024-03-02T16:49:54;5.10;;;2.50;;
30571;SDS011;17348;50.948;10.696;2024-03-02T16:52:58;7.60;;;2.90;;
30571;SDS011;17348;50.948;10.696;2024-03-02T16:56:00;7.13;;;3.22;;
30571;SDS011;17348;50.948;10.696;2024-03-02T16:59:04;5.63;;;3.08;;
30571;SDS011;17348;50.948;10.696;2024-03-02T17:02:06;3.85;;;2.60;;
30571;SDS011;17348;50.948;10.696;2024-03-02T17:05:08;6.32;;;3.35;;
30571;SDS011;17348;50.948;10.696;2024-03-02T17:08:12;6.43;;;3.35;;
30571;SDS011;17348;50.948;10.696;2024-03-02T17:11:14;6.45;;;2.53;;
30571;SDS011;17348;50.948;10.696;2024-03-02T17:14:17;6.93;;;2.67;;
30571;SDS011;17348;50.948;10.696;2024-03-02T17:17:19;5.10;;;3.00;;
30571;SDS011;17348;50.948;10.696;2024-03-02T17:20:21;7.20;;;3.10;;
30571;SDS011;17348;50.948;10.696;2024-03-02T17:23:25;5.97;;;3.40;;
30571;SDS011;17348;50.948;10.696;2024-03-02T17:26:31;7.47;;;3.55;;
30571;SDS011;17348;50.948;10.696;2024-03-02T17:29:33;8.02;;;3.83;;
30571;SDS011;17348;50.948;10.696;2024-03-02T17:32:36;5.10;;;3.35;;
30571;SDS011;17348;50.948;10.696;2024-03-02T17:35:38;7.05;;;3.78;;
30571;SDS011;17348;50.948;10.696;2024-03-02T17:38:42;11.35;;;3.95;;
30571;SDS011;17348;50.948;10.696;2024-03-02T17:41:44;7.00;;;3.72;;
30571;SDS011;17348;50.948;10.696;2024-03-02T17:44:46;7.85;;;4.28;;
30571;SDS011;17348;50.948;10.696;2024-03-02T17:47:49;6.75;;;3.42;;
30571;SDS011;17348;50.948;10.696;2024-03-02T17:50:51;7.47;;;3.60;;